createdAt,value
2023-01-13T00:01:15.281Z,100.00
2023-01-13T00:03:43.392Z,100.00
2023-01-13T00:06:14.399Z,100.00
2023-01-13T00:08:42.019Z,100.00
2023-01-13T00:11:12.129Z,100.00
2023-01-13T00:13:39.828Z,100.00
2023-01-13T00:16:12.262Z,100.00
2023-01-13T00:18:39.981Z,100.00
2023-01-13T00:21:09.576Z,100.00
2023-01-13T00:23:37.776Z,100.00
2023-01-13T00:26:08.265Z,100.00
2023-01-13T00:28:37.699Z,100.00
2023-01-13T00:31:06.849Z,100.00
2023-01-13T00:33:34.531Z,100.00
2023-01-13T00:36:03.518Z,100.00
2023-01-13T00:38:32.599Z,100.00
2023-01-13T00:41:01.590Z,100.00
2023-01-13T00:43:30.278Z,100.00
2023-01-13T00:45:59.983Z,100.00
2023-01-13T00:48:29.529Z,100.00
2023-01-13T00:50:58.409Z,100.00
2023-01-13T00:53:27.136Z,100.00
2023-01-13T00:56:05.721Z,100.00
2023-01-13T00:58:35.025Z,100.00
2023-01-13T01:01:06.704Z,100.00
2023-01-13T01:03:35.445Z,100.00
2023-01-13T01:06:06.885Z,100.00
2023-01-13T01:08:35.648Z,100.00
2023-01-13T01:11:04.461Z,100.00
2023-01-13T01:13:32.436Z,100.00
2023-01-13T01:16:00.551Z,100.00
2023-01-13T01:18:29.617Z,100.00
2023-01-13T01:21:00.861Z,100.00
2023-01-13T01:23:29.170Z,100.00
2023-01-13T01:26:01.022Z,100.00
2023-01-13T01:28:28.914Z,100.00
2023-01-13T01:30:58.442Z,100.00
2023-01-13T01:33:26.572Z,100.00
2023-01-13T01:35:55.798Z,100.00
2023-01-13T01:38:23.541Z,100.00
2023-01-13T01:40:51.256Z,100.00
2023-01-13T01:43:38.460Z,100.00
2023-01-13T01:46:06.737Z,100.00
2023-01-13T01:48:38.319Z,100.00
2023-01-13T01:51:13.464Z,100.00
2023-01-13T01:53:42.471Z,100.00
2023-01-13T01:56:11.642Z,100.00
2023-01-13T01:58:45.618Z,100.00
2023-01-13T02:01:14.271Z,100.00
2023-01-13T02:03:46.735Z,100.00
2023-01-13T02:06:16.858Z,100.00
2023-01-13T02:08:44.907Z,100.00
2023-01-13T02:11:41.922Z,100.00
2023-01-13T02:14:11.666Z,100.00
2023-01-13T02:16:44.533Z,100.00
2023-01-13T02:19:28.096Z,100.00
2023-01-13T02:22:17.501Z,100.00
2023-01-13T02:25:20.962Z,100.00
2023-01-13T02:28:01.471Z,100.00
2023-01-13T02:30:59.959Z,100.00
2023-01-13T02:33:35.422Z,100.00
2023-01-13T02:36:11.492Z,100.00
2023-01-13T02:38:47.171Z,100.00
2023-01-13T02:41:40.884Z,100.00
2023-01-13T02:44:11.715Z,100.00
2023-01-13T02:46:49.427Z,100.00
2023-01-13T02:49:26.283Z,100.00
2023-01-13T02:51:59.047Z,100.00
2023-01-13T02:54:29.328Z,100.00
2023-01-13T02:56:59.171Z,100.00
2023-01-13T02:59:29.043Z,100.00
2023-01-13T03:02:00.507Z,100.00
2023-01-13T03:04:50.807Z,100.00
2023-01-13T03:07:45.244Z,100.00
2023-01-13T03:10:23.083Z,100.00
2023-01-13T03:13:01.006Z,100.00
2023-01-13T03:15:40.300Z,100.00
2023-01-13T03:18:21.140Z,100.00
2023-01-13T03:20:59.871Z,100.00
2023-01-13T03:23:33.871Z,100.00
2023-01-13T03:26:09.502Z,100.00
2023-01-13T03:28:44.013Z,100.00
2023-01-13T03:31:16.921Z,100.00
2023-01-13T03:33:49.857Z,100.00
2023-01-13T03:36:20.618Z,100.00
2023-01-13T03:38:53.921Z,100.00
2023-01-13T03:41:27.000Z,100.00
2023-01-13T03:44:18.003Z,100.00
2023-01-13T03:46:52.533Z,100.00
2023-01-13T03:49:25.583Z,100.00
2023-01-13T03:51:58.076Z,100.00
2023-01-13T03:54:29.997Z,100.00
2023-01-13T03:57:03.006Z,100.00
2023-01-13T03:59:35.269Z,100.00
2023-01-13T04:02:08.299Z,100.00
2023-01-13T04:04:44.253Z,100.00
2023-01-13T04:07:21.551Z,100.00
2023-01-13T04:09:51.927Z,100.00
2023-01-13T04:12:27.152Z,100.00
2023-01-13T04:14:56.063Z,100.00
2023-01-13T04:17:24.691Z,100.00
2023-01-13T04:19:53.717Z,100.00
2023-01-13T04:22:21.472Z,100.00
2023-01-13T04:24:49.182Z,100.00
2023-01-13T04:27:16.913Z,100.00
2023-01-13T04:29:44.768Z,100.00
2023-01-13T04:32:12.381Z,100.00
2023-01-13T04:34:40.096Z,100.00
2023-01-13T04:37:09.285Z,100.00
2023-01-13T04:39:37.194Z,100.00
2023-01-13T04:42:05.153Z,100.00
2023-01-13T04:44:35.282Z,100.00
2023-01-13T04:47:03.881Z,100.00
2023-01-13T04:49:31.847Z,100.00
2023-01-13T04:51:59.635Z,100.00
2023-01-13T04:54:28.718Z,100.00
2023-01-13T04:56:56.403Z,100.00
2023-01-13T04:59:24.395Z,100.00
2023-01-13T05:01:52.355Z,100.00
2023-01-13T05:04:20.170Z,100.00
2023-01-13T05:06:47.976Z,100.00
2023-01-13T05:09:16.049Z,100.00
2023-01-13T05:12:02.556Z,100.00
2023-01-13T05:14:47.763Z,100.00
2023-01-13T05:17:25.816Z,100.00
2023-01-13T05:19:53.493Z,100.00
2023-01-13T05:22:38.139Z,100.00
2023-01-13T05:25:25.670Z,100.00
2023-01-13T05:27:56.641Z,100.00
2023-01-13T05:30:26.251Z,100.00
2023-01-13T05:32:53.989Z,100.00
2023-01-13T05:35:21.933Z,100.00
2023-01-13T05:37:49.630Z,100.00
2023-01-13T05:40:37.252Z,100.00
2023-01-13T05:43:22.814Z,100.00
2023-01-13T05:45:52.777Z,100.00
2023-01-13T05:48:21.916Z,100.00
2023-01-13T05:50:50.319Z,100.00
2023-01-13T05:53:18.686Z,100.00
2023-01-13T05:55:46.917Z,100.00
2023-01-13T05:58:18.036Z,100.00
2023-01-13T06:00:46.189Z,100.00
2023-01-13T06:03:14.178Z,100.00
2023-01-13T06:05:42.067Z,100.00
2023-01-13T06:08:10.703Z,100.00
2023-01-13T06:10:38.499Z,100.00
2023-01-13T06:13:06.771Z,100.00
2023-01-13T06:15:36.165Z,100.00
2023-01-13T06:18:05.047Z,100.00
2023-01-13T06:20:33.135Z,100.00
2023-01-13T06:23:02.201Z,100.00
2023-01-13T06:25:39.509Z,100.00
2023-01-13T06:28:07.285Z,100.00
2023-01-13T06:30:40.034Z,100.00
2023-01-13T06:33:14.000Z,100.00
2023-01-13T06:35:46.835Z,100.00
2023-01-13T06:38:17.514Z,100.00
2023-01-13T06:40:45.856Z,100.00
2023-01-13T06:43:16.936Z,100.00
2023-01-13T06:45:50.477Z,100.00
2023-01-13T06:48:20.027Z,100.00
2023-01-13T06:50:47.850Z,100.00
2023-01-13T06:53:15.711Z,100.00
2023-01-13T06:55:43.425Z,100.00
2023-01-13T06:58:11.105Z,100.00
2023-01-13T07:00:39.604Z,100.00
2023-01-13T07:03:13.779Z,100.00
2023-01-13T07:05:43.180Z,100.00
2023-01-13T07:08:11.720Z,100.00
2023-01-13T07:10:39.682Z,100.00
2023-01-13T07:13:25.118Z,100.00
2023-01-13T07:15:58.007Z,100.00
2023-01-13T07:18:29.008Z,100.00
2023-01-13T07:20:58.426Z,100.00
2023-01-13T07:23:27.634Z,100.00
2023-01-13T07:25:57.006Z,100.00
2023-01-13T07:28:25.155Z,100.00
2023-01-13T07:30:53.330Z,100.00
2023-01-13T07:33:21.849Z,100.00
2023-01-13T07:35:57.454Z,100.00
2023-01-13T07:38:25.434Z,100.00
2023-01-13T07:40:53.832Z,100.00
2023-01-13T07:43:32.852Z,100.00
2023-01-13T07:46:02.596Z,100.00
2023-01-13T07:48:30.621Z,100.00
2023-01-13T07:51:02.931Z,100.00
2023-01-13T07:53:30.814Z,100.00
2023-01-13T07:55:59.413Z,100.00
2023-01-13T07:58:28.180Z,100.00
2023-01-13T08:00:56.689Z,100.00
2023-01-13T08:03:25.755Z,100.00
2023-01-13T08:05:53.785Z,100.00
2023-01-13T08:08:22.854Z,100.00
2023-01-13T08:10:50.655Z,100.00
2023-01-13T08:13:20.195Z,100.00
2023-01-13T08:15:50.045Z,100.00
2023-01-13T08:18:20.796Z,100.00
2023-01-13T08:20:49.652Z,100.00
2023-01-13T08:23:18.101Z,100.00
2023-01-13T08:25:47.525Z,100.00
2023-01-13T08:28:17.268Z,100.00
2023-01-13T08:30:45.312Z,100.00
2023-01-13T08:33:13.981Z,100.00
2023-01-13T08:35:42.573Z,100.00
2023-01-13T08:38:11.015Z,100.00
2023-01-13T08:40:40.737Z,100.00
2023-01-13T08:43:10.179Z,100.00
2023-01-13T08:45:38.292Z,100.00
2023-01-13T08:48:06.839Z,100.00
2023-01-13T08:50:34.703Z,100.00
2023-01-13T08:53:02.435Z,100.00
2023-01-13T08:55:30.399Z,100.00
2023-01-13T08:58:14.042Z,100.00
2023-01-13T09:00:45.072Z,100.00
2023-01-13T09:03:12.974Z,100.00
2023-01-13T09:05:40.771Z,100.00
2023-01-13T09:08:08.531Z,100.00
2023-01-13T09:10:36.906Z,100.00
2023-01-13T09:13:13.065Z,100.00
2023-01-13T09:15:42.735Z,100.00
2023-01-13T09:18:12.478Z,100.00
2023-01-13T09:20:40.899Z,100.00
2023-01-13T09:23:11.003Z,100.00
2023-01-13T09:25:39.696Z,100.00
2023-01-13T09:28:08.785Z,100.00
2023-01-13T09:30:38.561Z,100.00
2023-01-13T09:33:23.846Z,100.00
2023-01-13T09:35:53.126Z,100.00
2023-01-13T09:38:20.828Z,100.00
2023-01-13T09:40:50.346Z,100.00
2023-01-13T09:43:45.668Z,100.00
2023-01-13T09:46:32.404Z,100.00
2023-01-13T09:49:03.591Z,100.00
2023-01-13T09:51:37.753Z,100.00
2023-01-13T09:54:13.660Z,100.00
2023-01-13T09:56:41.531Z,100.00
2023-01-13T09:59:11.560Z,100.00
2023-01-13T10:01:46.110Z,100.00
2023-01-13T10:04:16.158Z,100.00
2023-01-13T10:06:50.734Z,100.00
2023-01-13T10:09:27.563Z,100.00
2023-01-13T10:12:16.395Z,100.00
2023-01-13T10:14:51.066Z,100.00
2023-01-13T10:17:27.086Z,100.00
2023-01-13T10:20:03.114Z,100.00
2023-01-13T10:22:47.318Z,100.00
2023-01-13T10:25:25.840Z,100.00
2023-01-13T10:27:56.253Z,100.00
2023-01-13T10:30:30.973Z,100.00
2023-01-13T10:33:00.850Z,100.00
2023-01-13T10:35:51.136Z,100.00
2023-01-13T10:38:22.085Z,99.72
2023-01-13T10:40:51.509Z,100.00
2023-01-13T10:43:19.451Z,100.00
2023-01-13T10:45:58.651Z,99.76
2023-01-13T10:48:35.969Z,98.95
2023-01-13T10:51:20.721Z,95.66
2023-01-13T10:53:55.189Z,95.09
2023-01-13T10:56:24.876Z,92.39
2023-01-13T10:58:52.744Z,93.34
2023-01-13T11:01:26.944Z,92.99
2023-01-13T11:03:55.715Z,91.03
2023-01-13T11:06:26.704Z,90.71
2023-01-13T11:08:58.400Z,88.04
2023-01-13T11:11:37.301Z,88.49
2023-01-13T11:14:27.633Z,88.69
2023-01-13T11:16:59.718Z,88.43
2023-01-13T11:19:31.731Z,86.51
2023-01-13T11:22:03.745Z,86.60
2023-01-13T11:24:38.252Z,85.53
2023-01-13T11:27:13.262Z,83.46
2023-01-13T11:29:51.912Z,83.86
2023-01-13T11:32:22.833Z,85.66
2023-01-13T11:34:54.877Z,85.70
2023-01-13T11:37:25.974Z,85.26
2023-01-13T11:40:01.496Z,85.63
2023-01-13T11:42:34.768Z,87.43
2023-01-13T11:45:12.276Z,87.96
2023-01-13T11:47:40.246Z,90.82
2023-01-13T11:50:17.226Z,91.21
2023-01-13T11:53:16.836Z,92.73
2023-01-13T11:55:55.173Z,94.02
2023-01-13T11:59:11.733Z,93.04
2023-01-13T12:01:59.084Z,91.88
2023-01-13T12:04:30.366Z,87.45
2023-01-13T12:07:12.926Z,85.83
2023-01-13T12:09:54.506Z,84.37
2023-01-13T12:12:35.976Z,84.95
2023-01-13T12:15:23.297Z,86.09
2023-01-13T12:18:06.859Z,89.38
2023-01-13T12:20:44.278Z,90.57
2023-01-13T12:23:22.382Z,92.12
2023-01-13T12:25:55.537Z,92.39
2023-01-13T12:28:28.019Z,93.00
2023-01-13T12:31:00.266Z,93.42
2023-01-13T12:33:43.311Z,93.93
2023-01-13T12:36:19.545Z,92.88
2023-01-13T12:38:50.101Z,93.31
2023-01-13T12:41:29.490Z,92.04
2023-01-13T12:44:16.539Z,93.34
2023-01-13T12:46:56.876Z,90.44
2023-01-13T12:49:27.666Z,89.25
2023-01-13T12:52:23.037Z,89.45
2023-01-13T12:55:15.350Z,87.62
2023-01-13T12:57:57.731Z,86.27
2023-01-13T13:00:33.630Z,83.84
2023-01-13T13:03:31.123Z,82.33
2023-01-13T13:06:07.257Z,82.44
2023-01-13T13:08:51.309Z,78.81
2023-01-13T13:11:53.016Z,78.37
2023-01-13T13:14:59.928Z,76.36
2023-01-13T13:18:01.473Z,75.64
2023-01-13T13:21:04.184Z,77.20
2023-01-13T13:23:57.608Z,79.09
2023-01-13T13:26:42.437Z,82.43
2023-01-13T13:29:34.515Z,85.56
2023-01-13T13:32:27.069Z,86.94
2023-01-13T13:35:08.860Z,87.93
2023-01-13T13:38:09.507Z,89.05
2023-01-13T13:40:59.154Z,87.22
2023-01-13T13:43:46.703Z,87.24
2023-01-13T13:46:44.581Z,87.53
2023-01-13T13:49:13.226Z,88.73
2023-01-13T13:51:47.211Z,91.96
2023-01-13T13:54:18.286Z,96.32
2023-01-13T13:56:48.720Z,96.98
2023-01-13T13:59:20.278Z,98.24
2023-01-13T14:01:53.517Z,98.77
2023-01-13T14:04:25.769Z,97.97
2023-01-13T14:06:56.683Z,97.17
2023-01-13T14:09:25.969Z,91.92
2023-01-13T14:11:59.426Z,90.78
2023-01-13T14:14:27.563Z,91.07
2023-01-13T14:16:56.685Z,91.65
2023-01-13T14:19:33.247Z,90.59
2023-01-13T14:22:04.975Z,89.92
2023-01-13T14:24:33.687Z,90.17
2023-01-13T14:27:14.443Z,91.27
2023-01-13T14:29:42.364Z,91.22
2023-01-13T14:32:16.048Z,90.30
2023-01-13T14:34:44.257Z,90.24
2023-01-13T14:37:29.683Z,90.74
2023-01-13T14:39:57.470Z,90.29
2023-01-13T14:42:27.492Z,91.29
2023-01-13T14:44:56.438Z,92.23
2023-01-13T14:47:27.904Z,91.87
2023-01-13T14:50:02.581Z,92.27
2023-01-13T14:52:34.724Z,92.85
2023-01-13T14:55:24.166Z,94.53
2023-01-13T14:57:52.380Z,95.41
2023-01-13T15:00:26.013Z,97.25
2023-01-13T15:03:07.195Z,98.66
2023-01-13T15:05:42.665Z,100.00
2023-01-13T15:08:45.234Z,100.00
2023-01-13T15:11:25.323Z,100.00
2023-01-13T15:14:01.128Z,100.00
2023-01-13T15:16:33.883Z,100.00
2023-01-13T15:19:02.728Z,100.00
2023-01-13T15:21:30.639Z,100.00
2023-01-13T15:24:00.455Z,100.00
2023-01-13T15:26:30.543Z,100.00
2023-01-13T15:29:00.649Z,100.00
2023-01-13T15:31:29.306Z,100.00
2023-01-13T15:33:58.802Z,100.00
2023-01-13T15:36:29.850Z,100.00
2023-01-13T15:39:00.404Z,100.00
2023-01-13T15:41:46.099Z,100.00
2023-01-13T15:44:33.386Z,100.00
2023-01-13T15:47:03.690Z,97.94
2023-01-13T15:49:36.168Z,93.87
2023-01-13T15:52:05.321Z,93.12
2023-01-13T15:54:34.293Z,92.16
2023-01-13T15:57:02.262Z,91.58
2023-01-13T15:59:30.386Z,92.52
2023-01-13T16:01:58.089Z,91.68
2023-01-13T16:04:25.875Z,92.41
2023-01-13T16:06:53.784Z,92.56
2023-01-13T16:09:21.455Z,94.02
2023-01-13T16:11:50.653Z,94.53
2023-01-13T16:14:18.615Z,96.06
2023-01-13T16:16:46.448Z,96.99
2023-01-13T16:19:14.235Z,97.47
2023-01-13T16:21:42.181Z,96.07
2023-01-13T16:24:10.008Z,95.51
2023-01-13T16:26:38.976Z,97.29
2023-01-13T16:29:09.472Z,98.21
2023-01-13T16:31:37.548Z,98.83
2023-01-13T16:34:06.791Z,100.00
2023-01-13T16:36:37.334Z,100.00
2023-01-13T16:39:06.387Z,100.00
2023-01-13T16:41:34.939Z,100.00
2023-01-13T16:44:05.921Z,100.00
2023-01-13T16:46:35.242Z,100.00
2023-01-13T16:49:05.341Z,100.00
2023-01-13T16:51:34.353Z,100.00
2023-01-13T16:54:02.471Z,100.00
2023-01-13T16:56:32.769Z,100.00
2023-01-13T16:59:04.457Z,100.00
2023-01-13T17:01:34.195Z,99.92
2023-01-13T17:04:03.437Z,99.53
2023-01-13T17:06:36.616Z,98.51
2023-01-13T17:09:06.783Z,98.21
2023-01-13T17:11:35.325Z,97.15
2023-01-13T17:14:18.423Z,96.90
2023-01-13T17:16:47.773Z,96.43
2023-01-13T17:19:17.179Z,97.17
2023-01-13T17:21:47.034Z,97.66
2023-01-13T17:24:15.489Z,97.52
2023-01-13T17:26:47.507Z,98.03
2023-01-13T17:29:16.926Z,98.30
2023-01-13T17:31:44.774Z,98.21
2023-01-13T17:34:13.217Z,100.00
2023-01-13T17:36:43.398Z,100.00
2023-01-13T17:39:16.895Z,99.24
2023-01-13T17:41:44.733Z,100.00
2023-01-13T17:44:14.030Z,100.00
2023-01-13T17:46:42.121Z,100.00
2023-01-13T17:49:10.860Z,100.00
2023-01-13T17:51:38.793Z,100.00
2023-01-13T17:54:12.113Z,99.02
2023-01-13T17:56:40.248Z,98.14
2023-01-13T17:59:10.381Z,99.36
2023-01-13T18:01:39.338Z,99.53
2023-01-13T18:04:07.807Z,98.35
2023-01-13T18:06:35.530Z,97.84
2023-01-13T18:09:03.269Z,96.89
2023-01-13T18:11:32.411Z,97.55
2023-01-13T18:14:00.231Z,97.75
2023-01-13T18:16:30.492Z,99.34
2023-01-13T18:19:20.139Z,98.32
2023-01-13T18:22:06.195Z,99.44
2023-01-13T18:24:52.312Z,99.72
2023-01-13T18:27:27.036Z,98.69
2023-01-13T18:29:57.241Z,99.84
2023-01-13T18:32:28.916Z,100.00
2023-01-13T18:35:05.317Z,100.00
2023-01-13T18:37:35.560Z,100.00
2023-01-13T18:40:03.513Z,100.00
2023-01-13T18:42:50.545Z,100.00
2023-01-13T18:45:18.846Z,100.00
2023-01-13T18:47:46.722Z,100.00
2023-01-13T18:50:14.659Z,99.84
2023-01-13T18:52:42.326Z,100.00
2023-01-13T18:55:10.922Z,100.00
2023-01-13T18:57:40.861Z,100.00
2023-01-13T19:00:11.066Z,100.00
2023-01-13T19:02:39.314Z,99.93
2023-01-13T19:05:08.021Z,100.00
2023-01-13T19:07:36.312Z,100.00
2023-01-13T19:10:05.543Z,100.00
2023-01-13T19:12:33.783Z,100.00
2023-01-13T19:15:03.403Z,100.00
2023-01-13T19:17:33.377Z,99.52
2023-01-13T19:20:01.642Z,99.38
2023-01-13T19:22:30.953Z,97.46
2023-01-13T19:24:59.504Z,98.03
2023-01-13T19:27:28.008Z,98.11
2023-01-13T19:29:58.246Z,99.59
2023-01-13T19:32:27.873Z,99.51
2023-01-13T19:34:59.396Z,99.93
2023-01-13T19:37:30.499Z,98.70
2023-01-13T19:39:59.184Z,99.11
2023-01-13T19:42:44.631Z,99.84
2023-01-13T19:45:27.363Z,100.00
2023-01-13T19:47:57.160Z,99.70
2023-01-13T19:50:26.058Z,100.00
2023-01-13T19:52:53.989Z,100.00
2023-01-13T19:55:21.730Z,100.00
2023-01-13T19:57:49.577Z,100.00
2023-01-13T20:00:20.600Z,100.00
2023-01-13T20:02:49.389Z,100.00
2023-01-13T20:05:21.789Z,99.54
2023-01-13T20:07:50.736Z,100.00
2023-01-13T20:10:20.349Z,99.48
2023-01-13T20:12:48.076Z,99.57
2023-01-13T20:15:15.898Z,99.97
2023-01-13T20:17:43.695Z,100.00
2023-01-13T20:20:12.436Z,100.00
2023-01-13T20:22:41.687Z,100.00
2023-01-13T20:25:11.358Z,100.00
2023-01-13T20:27:39.274Z,100.00
2023-01-13T20:30:09.482Z,100.00
2023-01-13T20:32:37.321Z,100.00
2023-01-13T20:35:05.766Z,100.00
2023-01-13T20:37:33.554Z,100.00
2023-01-13T20:40:03.124Z,100.00
2023-01-13T20:42:29.974Z,100.00
2023-01-13T20:44:58.185Z,100.00
2023-01-13T20:47:26.132Z,100.00
2023-01-13T20:49:53.885Z,100.00
2023-01-13T20:52:21.738Z,100.00
2023-01-13T20:54:50.078Z,100.00
2023-01-13T20:57:19.492Z,100.00
2023-01-13T20:59:47.643Z,100.00
2023-01-13T21:02:17.611Z,100.00
2023-01-13T21:04:45.668Z,100.00
2023-01-13T21:07:13.924Z,100.00
2023-01-13T21:09:42.114Z,100.00
2023-01-13T21:12:32.244Z,100.00
2023-01-13T21:15:22.368Z,100.00
2023-01-13T21:18:25.533Z,100.00
2023-01-13T21:21:11.342Z,100.00
2023-01-13T21:23:40.860Z,100.00
2023-01-13T21:26:17.080Z,100.00
2023-01-13T21:28:55.594Z,100.00
2023-01-13T21:31:45.156Z,100.00
2023-01-13T21:34:41.576Z,100.00
2023-01-13T21:37:11.567Z,100.00
2023-01-13T21:39:39.975Z,100.00
2023-01-13T21:42:25.095Z,100.00
2023-01-13T21:45:10.900Z,100.00
2023-01-13T21:47:49.550Z,100.00
2023-01-13T21:50:26.155Z,100.00
2023-01-13T21:53:02.750Z,100.00
2023-01-13T21:55:37.336Z,100.00
2023-01-13T21:58:13.742Z,100.00
2023-01-13T22:00:44.688Z,100.00
2023-01-13T22:03:15.983Z,100.00
2023-01-13T22:05:44.368Z,100.00
2023-01-13T22:08:13.941Z,100.00
2023-01-13T22:10:58.406Z,100.00
2023-01-13T22:13:49.285Z,100.00
2023-01-13T22:16:21.239Z,100.00
2023-01-13T22:18:51.466Z,98.85
2023-01-13T22:21:20.508Z,98.19
2023-01-13T22:23:49.269Z,100.00
2023-01-13T22:26:20.001Z,100.00
2023-01-13T22:28:48.306Z,100.00
2023-01-13T22:31:17.737Z,100.00
2023-01-13T22:33:46.997Z,100.00
2023-01-13T22:36:16.570Z,100.00
2023-01-13T22:38:44.377Z,100.00
2023-01-13T22:41:12.219Z,100.00
2023-01-13T22:43:40.256Z,100.00
2023-01-13T22:46:10.016Z,100.00
2023-01-13T22:48:38.846Z,100.00
2023-01-13T22:51:08.048Z,100.00
2023-01-13T22:53:38.265Z,100.00
2023-01-13T22:56:06.978Z,100.00
2023-01-13T22:58:34.941Z,100.00
2023-01-13T23:01:10.602Z,100.00
2023-01-13T23:03:38.604Z,100.00
2023-01-13T23:06:07.275Z,100.00
2023-01-13T23:08:37.008Z,100.00
2023-01-13T23:11:07.024Z,100.00
2023-01-13T23:13:35.035Z,100.00
2023-01-13T23:16:04.250Z,100.00
2023-01-13T23:18:32.515Z,100.00
2023-01-13T23:21:04.177Z,100.00
2023-01-13T23:23:32.241Z,100.00
2023-01-13T23:26:02.076Z,100.00
2023-01-13T23:28:31.296Z,100.00
2023-01-13T23:30:59.063Z,100.00
2023-01-13T23:33:26.974Z,100.00
2023-01-13T23:35:58.335Z,100.00
2023-01-13T23:38:26.428Z,100.00
2023-01-13T23:40:54.278Z,100.00
2023-01-13T23:43:23.646Z,100.00
2023-01-13T23:45:51.547Z,100.00
2023-01-13T23:48:19.936Z,100.00
2023-01-13T23:50:58.661Z,100.00
2023-01-13T23:53:31.095Z,100.00
2023-01-13T23:55:59.078Z,100.00
2023-01-13T23:58:28.746Z,100.00
